Time;durP1;ratioP1;P1;durP2;ratioP2;P2;SDS_P1;SDS_P2;PMS_P1;PMS_P2;Temp;Humidity;BMP_temperature;BMP_pressure;BME280_temperature;BME280_humidity;BME280_pressure;Samples;Min_cycle;Max_cycle;Signal;HPM_P1;HPM_P2
2023/12/28 00:00:28;;;;;;;;;;;9.30;99.90;;;;;;5106560;27;19949;-74
2023/12/28 00:02:54;;;;;;;;;;;9.30;99.90;;;;;;5085052;27;20394;-74
2023/12/28 00:05:19;;;;;;;;;;;9.40;99.90;;;;;;5082389;27;20125;-74
2023/12/28 00:07:45;;;;;;;;;;;9.50;99.90;;;;;;5107557;27;19928;-74
2023/12/28 00:10:10;;;;;;;;;;;9.50;99.90;;;;;;5105982;28;19988;-74
2023/12/28 00:12:36;;;;;;;;;;;9.60;99.90;;;;;;5105511;28;20862;-74
2023/12/28 00:15:02;;;;;;;;;;;9.60;99.90;;;;;;5107330;27;19968;-74
2023/12/28 00:17:27;;;;;;;;;;;9.60;99.90;;;;;;5087880;28;19977;-74
2023/12/28 00:19:53;;;;;;;;;;;9.70;99.90;;;;;;5067037;28;20332;-74
2023/12/28 00:22:18;;;;;;;;;;;9.60;99.90;;;;;;5083329;28;19982;-73
2023/12/28 00:24:43;;;;;;;;;;;9.70;99.90;;;;;;5074546;27;20387;-74
2023/12/28 00:27:09;;;;;;;;;;;9.70;99.90;;;;;;5091741;28;19978;-73
2023/12/28 00:29:38;;;;;;;;;;;9.60;99.90;;;;;;5081716;28;19928;-73
2023/12/28 00:32:06;;;;;;;;;;;9.60;99.90;;;;;;5088040;28;19923;-73
2023/12/28 00:34:32;;;;;;;;;;;9.60;99.90;;;;;;5102625;27;19924;-73
2023/12/28 00:36:57;;;;;;;;;;;9.60;99.90;;;;;;5101909;27;21264;-74
2023/12/28 00:39:23;;;;;;;;;;;9.60;99.90;;;;;;5105625;28;20324;-74
2023/12/28 00:41:48;;;;;;;;;;;9.60;99.90;;;;;;5085941;28;20299;-73
2023/12/28 00:44:14;;;;;;;;;;;9.60;99.90;;;;;;5108342;28;19955;-74
2023/12/28 00:46:39;;;;;;;;;;;9.50;99.90;;;;;;5106051;28;20401;-74
2023/12/28 00:49:05;;;;;;;;;;;9.50;99.90;;;;;;5103554;28;19931;-73
2023/12/28 00:51:30;;;;;;;;;;;9.50;99.90;;;;;;5085308;28;19972;-74
2023/12/28 00:53:56;;;;;;;;;;;9.50;99.90;;;;;;5090241;28;19927;-73
2023/12/28 00:56:22;;;;;;;;;;;9.40;99.90;;;;;;5092145;28;19985;-73
2023/12/28 00:58:47;;;;;;;;;;;9.40;99.90;;;;;;5091764;28;19923;-73
2023/12/28 01:01:13;;;;;;;;;;;9.40;99.90;;;;;;5105038;28;20192;-73
2023/12/28 01:03:38;;;;;;;;;;;9.40;99.90;;;;;;5106965;28;19936;-73
2023/12/28 01:06:04;;;;;;;;;;;9.40;99.90;;;;;;5107911;28;19930;-74
2023/12/28 01:08:30;;;;;;;;;;;9.40;99.90;;;;;;5087547;28;20318;-74
2023/12/28 01:10:55;;;;;;;;;;;9.40;99.90;;;;;;5107740;28;19935;-73
2023/12/28 01:13:21;;;;;;;;;;;9.40;99.90;;;;;;5101441;28;19990;-74
2023/12/28 01:15:47;;;;;;;;;;;9.40;99.90;;;;;;5103218;28;20358;-73
2023/12/28 01:18:12;;;;;;;;;;;9.40;99.90;;;;;;5104369;28;20378;-73
2023/12/28 01:20:38;;;;;;;;;;;9.40;99.90;;;;;;5092619;28;20014;-74
2023/12/28 01:23:03;;;;;;;;;;;9.40;99.90;;;;;;5105506;28;19923;-73
2023/12/28 01:25:29;;;;;;;;;;;9.40;99.90;;;;;;5075731;28;19939;-74
2023/12/28 01:27:54;;;;;;;;;;;9.40;99.90;;;;;;5103331;28;20387;-74
2023/12/28 01:30:20;;;;;;;;;;;9.40;99.90;;;;;;5086641;28;20367;-74
2023/12/28 01:32:45;;;;;;;;;;;9.40;99.90;;;;;;5087239;28;19931;-74
2023/12/28 01:35:11;;;;;;;;;;;9.40;99.90;;;;;;5127560;27;20433;-73
2023/12/28 01:37:36;;;;;;;;;;;9.40;99.90;;;;;;5041616;27;1833591;-74
2023/12/28 01:40:02;;;;;;;;;;;9.40;99.90;;;;;;5123503;27;20279;-73
2023/12/28 01:42:30;;;;;;;;;;;9.50;99.90;;;;;;5087998;28;20647;-73
2023/12/28 01:44:56;;;;;;;;;;;9.40;99.90;;;;;;5122321;27;19967;-73
2023/12/28 01:47:21;;;;;;;;;;;9.50;99.90;;;;;;5091133;27;19931;-73
2023/12/28 01:49:47;;;;;;;;;;;9.50;99.90;;;;;;5078540;27;20030;-73
2023/12/28 01:52:12;;;;;;;;;;;9.50;99.90;;;;;;5088961;28;20005;-73
2023/12/28 01:54:39;;;;;;;;;;;9.50;99.90;;;;;;5100749;28;20073;-73
2023/12/28 01:57:04;;;;;;;;;;;9.60;99.90;;;;;;5109105;27;19924;-73
2023/12/28 01:59:30;;;;;;;;;;;9.60;99.90;;;;;;5118297;27;19932;-73
2023/12/28 02:01:56;;;;;;;;;;;9.60;99.90;;;;;;5100670;27;20412;-74
2023/12/28 02:04:27;;;;;;;;;;;9.70;99.90;;;;;;5080977;28;20119;-73
2023/12/28 02:06:55;;;;;;;;;;;9.60;99.90;;;;;;5087727;27;20345;-73
2023/12/28 02:09:21;;;;;;;;;;;9.70;99.90;;;;;;5118943;27;19931;-74
2023/12/28 02:11:46;;;;;;;;;;;9.70;99.90;;;;;;5103131;27;19932;-73
2023/12/28 02:14:12;;;;;;;;;;;9.70;99.90;;;;;;5100708;28;19938;-73
2023/12/28 02:16:42;;;;;;;;;;;9.70;99.90;;;;;;5084941;28;19928;-73
2023/12/28 02:19:17;;;;;;;;;;;9.70;99.90;;;;;;5087668;28;20322;-73
2023/12/28 02:21:43;;;;;;;;;;;9.70;99.90;;;;;;5084558;28;19920;-72
2023/12/28 02:24:09;;;;;;;;;;;9.80;99.90;;;;;;5105051;27;20425;-73
2023/12/28 02:26:34;;;;;;;;;;;9.80;99.90;;;;;;5102136;28;19924;-73
2023/12/28 02:29:00;;;;;;;;;;;9.90;99.90;;;;;;5086464;28;19973;-73
2023/12/28 02:31:32;;;;;;;;;;;9.90;99.90;;;;;;5083575;28;19930;-73
2023/12/28 02:34:00;;;;;;;;;;;9.90;99.90;;;;;;5102280;28;19924;-73
2023/12/28 02:36:26;;;;;;;;;;;9.90;99.90;;;;;;5117804;27;19923;-73
2023/12/28 02:38:52;;;;;;;;;;;10.00;99.90;;;;;;5106380;27;19932;-73
2023/12/28 02:41:18;;;;;;;;;;;10.00;99.90;;;;;;5118394;27;19930;-73
2023/12/28 02:43:44;;;;;;;;;;;10.10;99.90;;;;;;5124588;27;19959;-73
2023/12/28 02:46:10;;;;;;;;;;;10.20;99.90;;;;;;5134591;27;19990;-73
2023/12/28 02:48:35;;;;;;;;;;;10.20;99.90;;;;;;5107675;28;20383;-73
2023/12/28 02:51:01;;;;;;;;;;;10.20;99.90;;;;;;5109334;27;19974;-74
2023/12/28 02:53:26;;;;;;;;;;;10.30;99.90;;;;;;5116961;27;19938;-74
2023/12/28 02:55:52;;;;;;;;;;;10.20;99.90;;;;;;5109006;27;19926;-74
2023/12/28 02:58:17;;;;;;;;;;;10.20;99.90;;;;;;5111910;27;19939;-73
2023/12/28 03:00:43;;;;;;;;;;;10.20;99.90;;;;;;5107538;27;19923;-74
2023/12/28 03:03:08;;;;;;;;;;;10.20;99.90;;;;;;5128313;27;19923;-73
2023/12/28 03:05:34;;;;;;;;;;;10.30;99.90;;;;;;5112735;27;19923;-74
2023/12/28 03:07:59;;;;;;;;;;;10.30;99.90;;;;;;5116158;27;19934;-73
2023/12/28 03:10:25;;;;;;;;;;;10.20;99.90;;;;;;5103896;27;19938;-73
2023/12/28 03:12:51;;;;;;;;;;;10.30;99.90;;;;;;5106492;27;21057;-74
2023/12/28 03:15:16;;;;;;;;;;;10.30;99.90;;;;;;5124657;27;19935;-73
2023/12/28 03:17:42;;;;;;;;;;;10.30;99.90;;;;;;5113097;27;20310;-73
2023/12/28 03:20:08;;;;;;;;;;;10.30;99.90;;;;;;5099648;27;20396;-73
2023/12/28 03:22:33;;;;;;;;;;;10.30;99.90;;;;;;5127067;27;19931;-73
2023/12/28 03:24:59;;;;;;;;;;;10.20;99.90;;;;;;5106100;27;19924;-73
2023/12/28 03:27:24;;;;;;;;;;;10.20;99.90;;;;;;5089676;28;20010;-73
2023/12/28 03:29:50;;;;;;;;;;;10.30;99.90;;;;;;5107298;27;19939;-73
2023/12/28 03:32:15;;;;;;;;;;;10.30;99.90;;;;;;5112579;27;19927;-73
2023/12/28 03:34:41;;;;;;;;;;;10.20;99.90;;;;;;5132714;27;19993;-74
2023/12/28 03:37:06;;;;;;;;;;;10.20;99.90;;;;;;5117382;27;19936;-73
2023/12/28 03:39:33;;;;;;;;;;;10.20;99.90;;;;;;5089006;27;20603;-73
2023/12/28 03:41:58;;;;;;;;;;;10.20;99.90;;;;;;5109388;27;19932;-73
2023/12/28 03:44:24;;;;;;;;;;;10.20;99.90;;;;;;5092951;28;19988;-73
2023/12/28 03:46:50;;;;;;;;;;;10.20;99.90;;;;;;5085507;28;20410;-73
2023/12/28 03:49:19;;;;;;;;;;;10.30;99.90;;;;;;5092058;28;20006;-73
2023/12/28 03:51:45;;;;;;;;;;;10.30;99.90;;;;;;5099157;27;19931;-73
2023/12/28 03:54:11;;;;;;;;;;;10.30;99.90;;;;;;5104300;27;19928;-73
2023/12/28 03:56:39;;;;;;;;;;;10.30;99.90;;;;;;5109261;27;19930;-73
2023/12/28 03:59:05;;;;;;;;;;;10.30;99.90;;;;;;5111082;27;19996;-73
2023/12/28 04:01:31;;;;;;;;;;;10.30;99.90;;;;;;5107263;27;20074;-73
2023/12/28 04:03:56;;;;;;;;;;;10.30;99.90;;;;;;5088506;28;19997;-74
2023/12/28 04:06:22;;;;;;;;;;;10.30;99.90;;;;;;5093621;27;20008;-73
2023/12/28 04:08:47;;;;;;;;;;;10.30;99.90;;;;;;5106873;27;20305;-73
2023/12/28 04:11:13;;;;;;;;;;;10.30;99.90;;;;;;5109271;27;20323;-73
2023/12/28 04:13:39;;;;;;;;;;;10.30;99.90;;;;;;5107888;27;20018;-73
2023/12/28 04:16:04;;;;;;;;;;;10.40;99.90;;;;;;5103574;27;19959;-73
2023/12/28 04:18:30;;;;;;;;;;;10.40;99.90;;;;;;5105770;27;19928;-73
2023/12/28 04:20:56;;;;;;;;;;;10.40;99.90;;;;;;5082338;27;19958;-73
2023/12/28 04:23:21;;;;;;;;;;;10.40;99.90;;;;;;5092619;28;19973;-73
2023/12/28 04:25:47;;;;;;;;;;;10.50;99.90;;;;;;5089057;27;20026;-73
2023/12/28 04:28:13;;;;;;;;;;;10.40;99.90;;;;;;5084926;28;19970;-73
2023/12/28 04:30:38;;;;;;;;;;;10.50;99.90;;;;;;5105452;27;19923;-74
2023/12/28 04:33:04;;;;;;;;;;;10.50;99.90;;;;;;5090456;27;20429;-73
2023/12/28 04:35:30;;;;;;;;;;;10.60;99.90;;;;;;5106937;27;19932;-73
2023/12/28 04:37:56;;;;;;;;;;;10.50;99.90;;;;;;5087408;28;19924;-73
2023/12/28 04:40:21;;;;;;;;;;;10.60;99.90;;;;;;5075587;28;20033;-73
2023/12/28 04:42:47;;;;;;;;;;;10.60;99.90;;;;;;5085779;28;19939;-73
2023/12/28 04:45:12;;;;;;;;;;;10.60;99.90;;;;;;5090689;27;19959;-73
2023/12/28 04:47:38;;;;;;;;;;;10.60;99.90;;;;;;5096152;27;19931;-73
2023/12/28 04:50:04;;;;;;;;;;;10.60;99.90;;;;;;5101584;27;19928;-73
2023/12/28 04:52:30;;;;;;;;;;;10.60;99.90;;;;;;5105749;27;19935;-73
2023/12/28 04:54:55;;;;;;;;;;;10.60;99.90;;;;;;5102826;27;19931;-73
2023/12/28 04:57:24;;;;;;;;;;;10.50;99.90;;;;;;5109262;27;20370;-72
2023/12/28 04:59:49;;;;;;;;;;;10.60;99.90;;;;;;5083222;27;19927;-73
2023/12/28 05:02:15;;;;;;;;;;;10.60;99.90;;;;;;5106072;27;19938;-73
2023/12/28 05:04:40;;;;;;;;;;;10.60;99.90;;;;;;5106996;27;20386;-73
2023/12/28 05:07:06;;;;;;;;;;;10.60;99.90;;;;;;5091563;27;20402;-73
2023/12/28 05:09:31;;;;;;;;;;;10.60;99.90;;;;;;5087886;27;19931;-73
2023/12/28 05:11:57;;;;;;;;;;;10.60;99.90;;;;;;5103369;27;19931;-73
2023/12/28 05:14:23;;;;;;;;;;;10.60;99.90;;;;;;5107083;27;20390;-73
2023/12/28 05:16:48;;;;;;;;;;;10.50;99.90;;;;;;5084187;27;19932;-72
2023/12/28 05:19:14;;;;;;;;;;;10.50;99.90;;;;;;5111811;27;20326;-73
2023/12/28 05:21:39;;;;;;;;;;;10.50;99.90;;;;;;5091358;27;20325;-72
2023/12/28 05:24:05;;;;;;;;;;;10.50;99.90;;;;;;5094804;27;19935;-73
2023/12/28 05:26:31;;;;;;;;;;;10.50;99.90;;;;;;5091504;27;19970;-73
2023/12/28 05:28:56;;;;;;;;;;;10.50;99.90;;;;;;5088314;27;19923;-72
2023/12/28 05:31:22;;;;;;;;;;;10.50;99.90;;;;;;5089256;27;19951;-72
2023/12/28 05:33:47;;;;;;;;;;;10.50;99.90;;;;;;5090436;27;20308;-72
2023/12/28 05:36:13;;;;;;;;;;;10.50;99.90;;;;;;5085917;27;20290;-73
2023/12/28 05:38:38;;;;;;;;;;;10.50;99.90;;;;;;5101033;27;19963;-74
2023/12/28 05:41:04;;;;;;;;;;;10.50;99.90;;;;;;5079193;28;19931;-72
2023/12/28 05:43:29;;;;;;;;;;;10.40;99.90;;;;;;5081832;28;20424;-73
2023/12/28 05:45:55;;;;;;;;;;;10.40;99.90;;;;;;5084532;28;20342;-71
2023/12/28 05:48:20;;;;;;;;;;;10.40;99.90;;;;;;5083574;28;19931;-73
2023/12/28 05:50:46;;;;;;;;;;;10.40;99.90;;;;;;5090635;28;20056;-72
2023/12/28 05:53:13;;;;;;;;;;;10.40;99.90;;;;;;5096862;28;19928;-72
2023/12/28 05:55:40;;;;;;;;;;;10.50;99.90;;;;;;5096629;28;20424;-72
2023/12/28 05:58:05;;;;;;;;;;;10.50;99.90;;;;;;5094795;28;21452;-73
2023/12/28 06:00:31;;;;;;;;;;;10.50;99.90;;;;;;5081336;28;19923;-74
2023/12/28 06:02:56;;;;;;;;;;;10.50;99.90;;;;;;5080623;28;19923;-73
2023/12/28 06:05:22;;;;;;;;;;;10.60;99.90;;;;;;5101107;28;19980;-73
2023/12/28 06:07:47;;;;;;;;;;;10.60;99.90;;;;;;5096078;28;19924;-71
2023/12/28 06:10:13;;;;;;;;;;;10.60;99.90;;;;;;5076683;28;20516;-72
2023/12/28 06:12:38;;;;;;;;;;;10.60;99.90;;;;;;5094735;28;19977;-72
2023/12/28 06:15:04;;;;;;;;;;;10.60;99.90;;;;;;5078007;28;20267;-71
2023/12/28 06:17:29;;;;;;;;;;;10.70;99.90;;;;;;5084668;27;19932;-71
2023/12/28 06:19:55;;;;;;;;;;;10.70;99.90;;;;;;5080989;28;19924;-72
2023/12/28 06:22:21;;;;;;;;;;;10.70;99.90;;;;;;5078105;28;19920;-71
2023/12/28 06:24:46;;;;;;;;;;;10.70;99.90;;;;;;5088816;28;20080;-72
2023/12/28 06:27:12;;;;;;;;;;;10.70;99.90;;;;;;5070318;28;20302;-71
2023/12/28 06:29:37;;;;;;;;;;;10.60;99.90;;;;;;5095931;28;19935;-72
2023/12/28 06:32:03;;;;;;;;;;;10.60;99.90;;;;;;5091772;28;19997;-71
2023/12/28 06:34:28;;;;;;;;;;;10.60;99.90;;;;;;5083888;28;20013;-71
2023/12/28 06:36:54;;;;;;;;;;;10.60;99.90;;;;;;5085101;28;20285;-72
2023/12/28 06:39:19;;;;;;;;;;;10.60;99.90;;;;;;5109762;28;20096;-72
2023/12/28 06:41:48;;;;;;;;;;;10.70;99.90;;;;;;5100137;28;19960;-71
2023/12/28 06:44:14;;;;;;;;;;;10.60;99.90;;;;;;5120975;28;20025;-71
2023/12/28 06:46:40;;;;;;;;;;;10.60;99.90;;;;;;5120354;27;20404;-71
2023/12/28 06:49:06;;;;;;;;;;;10.60;99.90;;;;;;5111244;27;20022;-71
2023/12/28 06:51:31;;;;;;;;;;;10.60;99.90;;;;;;5108616;28;19955;-71
2023/12/28 06:53:57;;;;;;;;;;;10.70;99.90;;;;;;5112960;28;20006;-71
2023/12/28 06:56:22;;;;;;;;;;;10.70;99.90;;;;;;5115088;28;20014;-72
2023/12/28 06:58:48;;;;;;;;;;;10.70;99.90;;;;;;5141381;27;20065;-72
2023/12/28 07:01:13;;;;;;;;;;;10.60;99.90;;;;;;5118733;27;20283;-71
2023/12/28 07:03:39;;;;;;;;;;;10.60;99.90;;;;;;5116740;27;19943;-71
2023/12/28 07:06:05;;;;;;;;;;;10.60;99.90;;;;;;5118244;28;19933;-72
2023/12/28 07:08:30;;;;;;;;;;;10.60;99.90;;;;;;5127783;27;19931;-72
2023/12/28 07:10:57;;;;;;;;;;;10.60;99.90;;;;;;5114083;27;20298;-72
2023/12/28 07:13:22;;;;;;;;;;;10.50;99.90;;;;;;5115362;28;19953;-71
2023/12/28 07:15:48;;;;;;;;;;;10.50;99.90;;;;;;5117936;28;19924;-71
2023/12/28 07:18:13;;;;;;;;;;;10.50;99.90;;;;;;5111906;28;19928;-71
2023/12/28 07:20:39;;;;;;;;;;;10.50;99.90;;;;;;5141403;27;19923;-72
2023/12/28 07:23:04;;;;;;;;;;;10.60;99.90;;;;;;5104993;28;19923;-72
2023/12/28 07:25:30;;;;;;;;;;;10.60;99.90;;;;;;5105331;28;19931;-71
2023/12/28 07:27:56;;;;;;;;;;;10.60;99.90;;;;;;5115432;28;20340;-71
2023/12/28 07:30:21;;;;;;;;;;;10.60;99.90;;;;;;5111877;27;19974;-71
2023/12/28 07:32:47;;;;;;;;;;;10.60;99.90;;;;;;5136922;27;19943;-72
2023/12/28 07:35:12;;;;;;;;;;;10.60;99.90;;;;;;5114776;28;20309;-72
2023/12/28 07:37:38;;;;;;;;;;;10.60;99.90;;;;;;5114275;28;19923;-72
2023/12/28 07:40:03;;;;;;;;;;;10.70;99.90;;;;;;5114563;28;19928;-71
2023/12/28 07:42:29;;;;;;;;;;;10.60;99.90;;;;;;5113472;27;19930;-72
2023/12/28 07:44:55;;;;;;;;;;;10.60;99.90;;;;;;5102053;27;19924;-71
2023/12/28 07:47:20;;;;;;;;;;;10.60;99.90;;;;;;5121717;27;20358;-72
2023/12/28 07:49:46;;;;;;;;;;;10.60;99.90;;;;;;5109434;27;19938;-71
2023/12/28 07:52:11;;;;;;;;;;;10.60;99.90;;;;;;5121775;27;20293;-71
2023/12/28 07:54:37;;;;;;;;;;;10.60;99.90;;;;;;5123047;27;19967;-71
2023/12/28 07:57:02;;;;;;;;;;;10.70;99.90;;;;;;5142215;27;19968;-72
2023/12/28 07:59:28;;;;;;;;;;;10.70;99.90;;;;;;5119219;27;19931;-72
2023/12/28 08:01:53;;;;;;;;;;;10.70;99.90;;;;;;5118703;27;20020;-72
2023/12/28 08:04:19;;;;;;;;;;;10.70;99.90;;;;;;5117294;27;20008;-72
2023/12/28 08:06:44;;;;;;;;;;;10.60;99.90;;;;;;5121412;27;20397;-71
2023/12/28 08:09:10;;;;;;;;;;;10.60;99.90;;;;;;5115786;27;19931;-71
2023/12/28 08:11:35;;;;;;;;;;;10.60;99.90;;;;;;5144892;27;19919;-71
2023/12/28 08:14:01;;;;;;;;;;;10.60;99.90;;;;;;5116951;27;20419;-72
2023/12/28 08:16:27;;;;;;;;;;;10.70;99.90;;;;;;5101854;28;19951;-71
2023/12/28 08:18:52;;;;;;;;;;;10.70;99.90;;;;;;5115982;27;20275;-71
2023/12/28 08:21:18;;;;;;;;;;;10.70;99.90;;;;;;5116337;27;19950;-70
2023/12/28 08:23:43;;;;;;;;;;;10.70;99.90;;;;;;5117051;27;19959;-71
2023/12/28 08:26:09;;;;;;;;;;;10.70;99.90;;;;;;5118741;27;20144;-71
2023/12/28 08:28:35;;;;;;;;;;;10.70;99.90;;;;;;5114841;27;19931;-71
2023/12/28 08:31:00;;;;;;;;;;;10.70;99.90;;;;;;5122579;27;20442;-71
2023/12/28 08:33:26;;;;;;;;;;;10.70;99.90;;;;;;5142120;27;20392;-71
2023/12/28 08:35:52;;;;;;;;;;;10.70;99.90;;;;;;5120462;27;20424;-71
2023/12/28 08:38:17;;;;;;;;;;;10.70;99.90;;;;;;5099151;27;19923;-71
2023/12/28 08:40:44;;;;;;;;;;;10.70;99.90;;;;;;5123937;27;20318;-72
2023/12/28 08:43:10;;;;;;;;;;;10.70;99.90;;;;;;5118232;27;20339;-70
2023/12/28 08:45:35;;;;;;;;;;;10.70;99.90;;;;;;5122065;27;20018;-69
2023/12/28 08:48:01;;;;;;;;;;;10.70;99.90;;;;;;5122802;27;19933;-74
2023/12/28 08:50:27;;;;;;;;;;;10.70;99.90;;;;;;5119697;27;19946;-73
2023/12/28 08:52:52;;;;;;;;;;;10.70;99.90;;;;;;5113985;27;20210;-73
2023/12/28 08:55:18;;;;;;;;;;;10.70;99.90;;;;;;5113558;27;19953;-73
2023/12/28 08:57:43;;;;;;;;;;;10.70;99.90;;;;;;5111032;27;19930;-73
2023/12/28 09:00:10;;;;;;;;;;;10.70;99.90;;;;;;5114391;27;20466;-73
2023/12/28 09:02:35;;;;;;;;;;;10.70;99.90;;;;;;5112133;27;19926;-73
2023/12/28 09:05:01;;;;;;;;;;;10.70;99.90;;;;;;5116191;27;19927;-72
2023/12/28 09:07:26;;;;;;;;;;;10.70;99.90;;;;;;5117808;27;19924;-73
2023/12/28 09:09:52;;;;;;;;;;;10.70;99.90;;;;;;5116282;27;20288;-73
2023/12/28 09:12:17;;;;;;;;;;;10.70;99.90;;;;;;5110216;27;20068;-73
2023/12/28 09:14:43;;;;;;;;;;;10.70;99.90;;;;;;5113714;27;20391;-73
2023/12/28 09:17:08;;;;;;;;;;;10.70;99.90;;;;;;5116305;27;19924;-73
2023/12/28 09:19:34;;;;;;;;;;;10.80;99.90;;;;;;5113600;27;19931;-73
2023/12/28 09:21:59;;;;;;;;;;;10.80;99.90;;;;;;5114967;27;20955;-73
2023/12/28 09:24:25;;;;;;;;;;;10.80;99.90;;;;;;5113288;27;19924;-73
2023/12/28 09:26:50;;;;;;;;;;;10.80;99.90;;;;;;5115189;27;19970;-73
2023/12/28 09:29:16;;;;;;;;;;;10.80;99.90;;;;;;5110657;27;19924;-73
2023/12/28 09:31:41;;;;;;;;;;;10.80;99.90;;;;;;5112589;27;19928;-72
2023/12/28 09:34:07;;;;;;;;;;;10.80;99.90;;;;;;5112607;27;19945;-73
2023/12/28 09:36:32;;;;;;;;;;;10.80;99.90;;;;;;5096496;27;20348;-73
2023/12/28 09:38:58;;;;;;;;;;;10.80;99.90;;;;;;5115851;27;20364;-73
2023/12/28 09:41:29;;;;;;;;;;;10.80;99.90;;;;;;5116321;27;20030;-73
2023/12/28 09:44:21;;;;;;;;;;;10.90;99.90;;;;;;5116351;27;20428;-73
2023/12/28 09:46:47;;;;;;;;;;;10.90;99.90;;;;;;5109117;27;19976;-73
2023/12/28 09:49:12;;;;;;;;;;;10.90;99.90;;;;;;5117519;27;19964;-73
2023/12/28 09:51:38;;;;;;;;;;;10.90;99.90;;;;;;5115270;27;20044;-73
2023/12/28 09:54:04;;;;;;;;;;;11.00;99.90;;;;;;5112482;27;20289;-73
2023/12/28 09:56:31;;;;;;;;;;;11.00;99.90;;;;;;5111644;27;20002;-73
2023/12/28 09:58:57;;;;;;;;;;;11.00;99.90;;;;;;5138163;27;19924;-73
2023/12/28 10:01:23;;;;;;;;;;;11.00;99.90;;;;;;5117189;27;19930;-73
2023/12/28 10:03:48;;;;;;;;;;;11.00;99.90;;;;;;5098363;27;20420;-73
2023/12/28 10:06:15;;;;;;;;;;;11.00;99.90;;;;;;5111155;27;19967;-73
2023/12/28 10:08:47;;;;;;;;;;;11.00;99.90;;;;;;5110637;27;19942;-73
2023/12/28 10:11:15;;;;;;;;;;;11.00;99.90;;;;;;5139035;27;20020;-73
2023/12/28 10:13:42;;;;;;;;;;;11.00;99.90;;;;;;5113174;27;20339;-73
2023/12/28 10:16:08;;;;;;;;;;;11.00;99.90;;;;;;5114523;27;19975;-73
2023/12/28 10:18:35;;;;;;;;;;;11.00;99.90;;;;;;5114682;27;19928;-73
2023/12/28 10:21:00;;;;;;;;;;;11.00;99.90;;;;;;5110811;28;19967;-74
2023/12/28 10:23:26;;;;;;;;;;;11.00;99.90;;;;;;5112864;27;19959;-73
2023/12/28 10:25:54;;;;;;;;;;;11.00;99.90;;;;;;5114025;27;20143;-73
2023/12/28 10:28:20;;;;;;;;;;;11.00;99.90;;;;;;5136170;27;19931;-73
2023/12/28 10:30:45;;;;;;;;;;;11.00;99.90;;;;;;5133097;27;19932;-73
2023/12/28 10:33:11;;;;;;;;;;;11.00;99.90;;;;;;5108818;28;19976;-73
2023/12/28 10:35:36;;;;;;;;;;;11.00;99.90;;;;;;5118824;28;19934;-74
2023/12/28 10:38:04;;;;;;;;;;;11.00;99.90;;;;;;5124994;28;19931;-73
2023/12/28 10:40:31;;;;;;;;;;;11.10;99.90;;;;;;5112120;28;19978;-73
2023/12/28 10:43:01;;;;;;;;;;;11.00;99.90;;;;;;5117293;28;19989;-73
2023/12/28 10:45:28;;;;;;;;;;;11.10;99.90;;;;;;5110486;28;20410;-73
2023/12/28 10:48:03;;;;;;;;;;;11.10;99.90;;;;;;5138492;27;20375;-73
2023/12/28 10:50:33;;;;;;;;;;;11.10;99.90;;;;;;5120820;27;19969;-73
2023/12/28 10:53:04;;;;;;;;;;;11.10;99.90;;;;;;5110931;28;19924;-73
2023/12/28 10:55:33;;;;;;;;;;;11.10;99.90;;;;;;5111798;28;19931;-73
2023/12/28 10:58:02;;;;;;;;;;;11.10;99.90;;;;;;5136615;27;19923;-73
2023/12/28 11:00:31;;;;;;;;;;;11.10;99.90;;;;;;5110343;28;20433;-73
2023/12/28 11:02:58;;;;;;;;;;;11.10;99.90;;;;;;5113925;28;19930;-73
2023/12/28 11:05:24;;;;;;;;;;;11.10;99.90;;;;;;5120687;28;19932;-72
2023/12/28 11:07:52;;;;;;;;;;;11.20;99.90;;;;;;5115788;27;19932;-73
2023/12/28 11:10:18;;;;;;;;;;;11.20;99.90;;;;;;5112968;28;19924;-73
2023/12/28 11:12:44;;;;;;;;;;;11.20;99.90;;;;;;5113996;27;19924;-73
2023/12/28 11:15:11;;;;;;;;;;;11.20;99.90;;;;;;5110719;27;19931;-72
2023/12/28 11:17:37;;;;;;;;;;;11.20;99.90;;;;;;5111763;27;20118;-73
2023/12/28 11:20:05;;;;;;;;;;;11.20;99.90;;;;;;5116164;27;19939;-72
2023/12/28 11:22:31;;;;;;;;;;;11.20;99.90;;;;;;5116410;27;19932;-73
2023/12/28 11:24:56;;;;;;;;;;;11.20;99.90;;;;;;5115290;27;19985;-74
2023/12/28 11:27:23;;;;;;;;;;;11.20;99.90;;;;;;5146197;27;19949;-72
2023/12/28 11:29:49;;;;;;;;;;;11.20;99.90;;;;;;5146908;27;19948;-73
2023/12/28 11:32:14;;;;;;;;;;;11.20;99.90;;;;;;5115556;27;19924;-74
2023/12/28 11:34:40;;;;;;;;;;;11.20;99.90;;;;;;5121320;27;19931;-73
2023/12/28 11:37:12;;;;;;;;;;;11.20;99.90;;;;;;5115525;27;19923;-73
2023/12/28 11:39:43;;;;;;;;;;;11.20;99.90;;;;;;5118349;27;19930;-73
2023/12/28 11:42:09;;;;;;;;;;;11.20;99.90;;;;;;5115497;27;19924;-73
2023/12/28 11:44:39;;;;;;;;;;;11.20;99.90;;;;;;5128054;27;19930;-73
2023/12/28 11:47:14;;;;;;;;;;;11.20;99.90;;;;;;5126939;27;19924;-73
2023/12/28 11:49:40;;;;;;;;;;;11.20;99.90;;;;;;5113767;27;20390;-73
2023/12/28 11:52:06;;;;;;;;;;;11.20;99.90;;;;;;5142069;27;19928;-73
2023/12/28 11:54:32;;;;;;;;;;;11.10;99.90;;;;;;5118212;27;20139;-73
2023/12/28 11:56:57;;;;;;;;;;;11.20;99.90;;;;;;5118257;27;19926;-73
2023/12/28 11:59:23;;;;;;;;;;;11.20;99.90;;;;;;5144360;27;19975;-73
2023/12/28 12:01:52;;;;;;;;;;;11.10;99.90;;;;;;5117980;27;19927;-73
2023/12/28 12:04:18;;;;;;;;;;;11.10;99.90;;;;;;5125291;27;19954;-73
2023/12/28 12:06:44;;;;;;;;;;;11.10;99.90;;;;;;5142241;27;20369;-73
2023/12/28 12:09:11;;;;;;;;;;;11.10;99.90;;;;;;5115869;27;19927;-73
2023/12/28 12:11:37;;;;;;;;;;;11.10;99.90;;;;;;5116155;27;19931;-73
2023/12/28 12:14:06;;;;;;;;;;;11.10;99.90;;;;;;5101249;27;19932;-73
2023/12/28 12:16:31;;;;;;;;;;;11.10;99.90;;;;;;5117969;27;20546;-72
2023/12/28 12:18:58;;;;;;;;;;;11.10;99.90;;;;;;5144294;27;19931;-73
2023/12/28 12:21:24;;;;;;;;;;;11.10;99.90;;;;;;5146756;27;19947;-74
2023/12/28 12:23:50;;;;;;;;;;;11.10;99.90;;;;;;5120268;27;19935;-72
2023/12/28 12:26:18;;;;;;;;;;;11.10;99.90;;;;;;5116153;27;20336;-72
2023/12/28 12:28:44;;;;;;;;;;;11.10;99.90;;;;;;5116096;27;19967;-71
2023/12/28 12:31:10;;;;;;;;;;;11.10;99.90;;;;;;5116750;27;20453;-71
2023/12/28 12:33:36;;;;;;;;;;;11.10;99.90;;;;;;5115534;27;19923;-71
2023/12/28 12:36:02;;;;;;;;;;;11.10;99.90;;;;;;5117030;27;19928;-71
2023/12/28 12:38:27;;;;;;;;;;;11.10;99.90;;;;;;5139667;27;19975;-71
2023/12/28 12:40:53;;;;;;;;;;;11.10;99.90;;;;;;5112251;27;19930;-70
2023/12/28 12:43:22;;;;;;;;;;;11.10;99.90;;;;;;5112196;27;20071;-71
2023/12/28 12:45:47;;;;;;;;;;;11.10;99.90;;;;;;5116055;27;19969;-73
2023/12/28 12:48:14;;;;;;;;;;;11.10;99.90;;;;;;5115276;27;19955;-74
2023/12/28 12:50:39;;;;;;;;;;;11.10;99.90;;;;;;5116767;27;20049;-72
2023/12/28 12:53:05;;;;;;;;;;;11.10;99.90;;;;;;5140072;27;19924;-74
2023/12/28 12:55:30;;;;;;;;;;;11.10;99.90;;;;;;5143992;27;20343;-73
2023/12/28 12:57:57;;;;;;;;;;;11.10;99.90;;;;;;5113231;27;20450;-73
2023/12/28 13:00:22;;;;;;;;;;;11.10;99.90;;;;;;5119415;27;20387;-74
2023/12/28 13:02:53;;;;;;;;;;;11.10;99.90;;;;;;5146600;27;19938;-73
2023/12/28 13:05:18;;;;;;;;;;;11.10;99.90;;;;;;5146508;27;20339;-73
2023/12/28 13:07:44;;;;;;;;;;;11.10;99.90;;;;;;5118293;27;19924;-73
2023/12/28 13:10:10;;;;;;;;;;;11.10;99.90;;;;;;5115371;27;20438;-73
2023/12/28 13:12:36;;;;;;;;;;;11.10;99.90;;;;;;5134698;27;19924;-74
2023/12/28 13:15:01;;;;;;;;;;;11.10;99.90;;;;;;5144720;27;19931;-73
2023/12/28 13:17:27;;;;;;;;;;;11.10;99.90;;;;;;5139041;27;19975;-73
2023/12/28 13:19:52;;;;;;;;;;;11.10;99.90;;;;;;5139951;27;19931;-73
2023/12/28 13:22:18;;;;;;;;;;;11.10;99.90;;;;;;5115599;27;20333;-72
2023/12/28 13:24:43;;;;;;;;;;;11.10;99.90;;;;;;5113683;27;19938;-73
2023/12/28 13:27:10;;;;;;;;;;;11.10;99.90;;;;;;5115764;27;19931;-72
2023/12/28 13:29:36;;;;;;;;;;;11.00;99.90;;;;;;5143001;27;20395;-73
2023/12/28 13:32:01;;;;;;;;;;;11.00;99.90;;;;;;5117199;27;19996;-73
2023/12/28 13:34:28;;;;;;;;;;;11.00;99.90;;;;;;5116176;27;20080;-73
2023/12/28 13:36:54;;;;;;;;;;;11.00;99.90;;;;;;5123420;27;20154;-73
2023/12/28 13:39:19;;;;;;;;;;;11.00;99.90;;;;;;5119620;27;19931;-73
2023/12/28 13:41:45;;;;;;;;;;;11.00;99.90;;;;;;5113165;27;19947;-72
2023/12/28 13:44:12;;;;;;;;;;;10.90;99.90;;;;;;5094206;28;19954;-73
2023/12/28 13:46:38;;;;;;;;;;;11.00;99.90;;;;;;5113988;27;19967;-73
2023/12/28 13:49:04;;;;;;;;;;;11.00;99.90;;;;;;5116435;27;20077;-73
2023/12/28 13:51:33;;;;;;;;;;;11.00;99.90;;;;;;5116532;27;20421;-73
2023/12/28 13:53:58;;;;;;;;;;;10.90;99.90;;;;;;5141171;27;19923;-73
2023/12/28 13:56:24;;;;;;;;;;;11.00;99.90;;;;;;5115459;27;19923;-73
2023/12/28 13:58:49;;;;;;;;;;;10.90;99.90;;;;;;5134368;27;19969;-71
2023/12/28 14:01:15;;;;;;;;;;;10.90;99.90;;;;;;5114956;27;20417;-76
2023/12/28 14:03:40;;;;;;;;;;;10.90;99.90;;;;;;5116329;27;19923;-77
2023/12/28 14:06:06;;;;;;;;;;;10.90;99.90;;;;;;5124079;27;19959;-77
2023/12/28 14:08:32;;;;;;;;;;;10.80;99.90;;;;;;5133585;27;20033;-77
2023/12/28 14:10:57;;;;;;;;;;;10.70;99.90;;;;;;5122853;27;19976;-77